createdAt,value
2023-04-02T00:02:59.533Z,258.00
2023-04-02T00:08:05.076Z,255.50
2023-04-02T00:13:09.234Z,258.50
2023-04-02T00:18:23.785Z,261.50
2023-04-02T00:23:28.269Z,259.50
2023-04-02T00:28:33.512Z,254.75
2023-04-02T00:33:37.701Z,247.50
2023-04-02T00:38:46.829Z,231.50
2023-04-02T00:43:53.700Z,241.50
2023-04-02T00:49:18.625Z,236.75
2023-04-02T00:54:24.104Z,244.00
2023-04-02T00:59:30.428Z,234.75
2023-04-02T01:04:37.857Z,221.75
2023-04-02T01:09:44.883Z,228.25
2023-04-02T01:15:05.340Z,205.00
2023-04-02T01:20:28.027Z,204.25
2023-04-02T01:25:41.597Z,199.67
2023-04-02T01:30:46.799Z,209.67
2023-04-02T01:35:59.167Z,191.33
2023-04-02T01:41:11.170Z,198.33
2023-04-02T01:46:30.114Z,188.00
2023-04-02T01:51:36.161Z,197.33
2023-04-02T01:56:43.866Z,187.00
2023-04-02T02:01:53.155Z,166.67
2023-04-02T02:06:59.871Z,152.00
2023-04-02T02:54:05.880Z,136.67
2023-04-02T03:31:01.791Z,114.75
2023-04-02T03:36:24.290Z,125.00
2023-04-02T03:41:34.250Z,128.25
2023-04-02T03:46:42.361Z,130.25
2023-04-02T03:51:54.482Z,125.00
2023-04-02T03:56:59.490Z,129.50
2023-04-02T04:02:15.376Z,108.25
2023-04-02T04:07:31.536Z,118.75
2023-04-02T04:12:45.241Z,125.50
2023-04-02T04:17:56.100Z,115.50
2023-04-02T04:23:31.712Z,120.50
2023-04-02T04:28:45.863Z,115.25
2023-04-02T04:33:56.182Z,114.75
2023-04-02T04:39:07.027Z,110.75
2023-04-02T04:44:45.830Z,116.75
2023-04-02T04:50:07.062Z,107.25
2023-04-02T04:55:29.049Z,103.75
2023-04-02T05:00:37.169Z,104.25
2023-04-02T05:05:42.523Z,112.25
2023-04-02T05:10:53.118Z,104.75
2023-04-02T05:16:16.804Z,111.00
2023-04-02T05:21:39.249Z,118.25
2023-04-02T05:26:48.097Z,101.25
2023-04-02T05:31:59.998Z,106.25
2023-04-02T05:37:07.216Z,111.50
2023-04-02T05:42:22.909Z,97.25
2023-04-02T05:47:42.054Z,98.50
2023-04-02T05:52:53.830Z,102.75
2023-04-02T05:58:29.381Z,111.00
2023-04-02T06:03:34.141Z,104.25
2023-04-02T06:08:41.892Z,101.50
2023-04-02T06:13:46.720Z,96.00
2023-04-02T06:18:51.411Z,106.00
2023-04-02T06:24:07.455Z,99.00
2023-04-02T06:29:30.866Z,102.00
2023-04-02T06:34:38.365Z,104.75
2023-04-02T06:39:46.309Z,107.25
2023-04-02T06:44:53.634Z,108.50
2023-04-02T06:50:45.707Z,99.50
2023-04-02T06:56:08.749Z,104.00
2023-04-02T07:01:25.170Z,97.50
2023-04-02T07:06:29.284Z,96.00
2023-04-02T07:11:37.430Z,97.50
2023-04-02T07:16:44.333Z,100.25
2023-04-02T07:21:48.983Z,92.75
2023-04-02T07:26:54.409Z,97.75
2023-04-02T07:31:58.575Z,93.25
2023-04-02T07:37:03.987Z,96.50
2023-04-02T07:42:09.461Z,102.50
2023-04-02T07:47:13.776Z,90.00
2023-04-02T07:52:18.339Z,94.50
2023-04-02T07:57:22.556Z,98.25
2023-04-02T08:02:27.018Z,94.00
2023-04-02T08:07:31.718Z,86.75
2023-04-02T08:12:36.014Z,89.25
2023-04-02T08:17:40.247Z,88.75
2023-04-02T08:22:44.568Z,90.50
2023-04-02T08:27:49.496Z,89.50
2023-04-02T08:32:53.880Z,87.25
2023-04-02T08:37:58.208Z,87.50
2023-04-02T08:43:02.569Z,83.50
2023-04-02T08:48:07.787Z,77.50
2023-04-02T08:53:32.567Z,78.00
2023-04-02T08:58:48.824Z,77.25
2023-04-02T09:03:55.976Z,80.75
2023-04-02T09:09:01.778Z,78.75
2023-04-02T09:14:08.955Z,77.00
2023-04-02T09:19:17.773Z,88.75
2023-04-02T09:24:22.244Z,85.75
2023-04-02T09:30:04.669Z,76.25
2023-04-02T09:35:26.666Z,80.25
2023-04-02T09:40:50.207Z,74.25
2023-04-02T09:45:59.876Z,81.50
2023-04-02T09:51:10.146Z,81.50
2023-04-02T09:56:14.782Z,75.75
2023-04-02T10:01:30.907Z,94.75
2023-04-02T10:06:36.009Z,85.50
2023-04-02T10:11:46.405Z,113.50
2023-04-02T10:16:55.778Z,96.50
2023-04-02T10:22:02.594Z,93.50
2023-04-02T10:27:27.045Z,95.25
2023-04-02T10:32:49.756Z,87.00
2023-04-02T10:37:54.203Z,102.00
2023-04-02T10:43:11.781Z,97.00
2023-04-02T10:48:35.202Z,89.50
2023-04-02T10:54:00.154Z,91.25
2023-04-02T10:59:16.340Z,96.00
2023-04-02T11:04:24.117Z,101.50
2023-04-02T11:09:32.790Z,94.25
2023-04-02T11:14:38.259Z,94.75
2023-04-02T11:19:43.266Z,95.00
2023-04-02T11:24:52.698Z,100.50
2023-04-02T11:30:15.557Z,107.75
2023-04-02T11:35:29.776Z,102.25
2023-04-02T11:40:41.844Z,94.50
2023-04-02T11:45:52.608Z,92.75
2023-04-02T11:50:58.750Z,95.75
2023-04-02T11:56:22.574Z,203.33
2023-04-02T12:04:53.419Z,104.00
2023-04-02T12:10:02.273Z,105.25
2023-04-02T12:15:29.178Z,104.50
2023-04-02T12:20:34.964Z,110.25
2023-04-02T12:25:42.344Z,103.25
2023-04-02T12:30:47.495Z,104.75
2023-04-02T12:35:56.767Z,104.25
2023-04-02T12:41:03.232Z,107.75
2023-04-02T12:46:09.147Z,104.75
2023-04-02T12:51:13.784Z,110.50
2023-04-02T12:56:25.748Z,107.00
2023-04-02T13:01:32.983Z,97.75
2023-04-02T13:06:38.324Z,108.75
2023-04-02T13:11:43.538Z,98.50
2023-04-02T13:16:48.316Z,94.25
2023-04-02T13:21:54.640Z,89.75
2023-04-02T13:27:00.544Z,85.50
2023-04-02T13:32:06.902Z,96.25
2023-04-02T13:37:13.880Z,97.75
2023-04-02T13:42:19.881Z,99.50
2023-04-02T13:47:24.646Z,89.75
2023-04-02T13:52:29.250Z,84.50
2023-04-02T13:57:36.362Z,82.50
2023-04-02T14:02:45.300Z,86.25
2023-04-02T14:07:56.138Z,88.00
2023-04-02T14:13:19.459Z,86.75
2023-04-02T14:18:42.580Z,86.50
2023-04-02T14:24:06.269Z,85.25
2023-04-02T14:29:24.390Z,81.25
2023-04-02T14:34:46.414Z,84.75
2023-04-02T14:39:59.101Z,84.00
2023-04-02T14:45:07.997Z,91.50
2023-04-02T14:50:15.605Z,80.75
2023-04-02T14:55:35.382Z,78.75
2023-04-02T15:00:48.766Z,88.00
2023-04-02T15:05:55.315Z,79.75
2023-04-02T15:11:19.666Z,78.25
2023-04-02T15:16:28.357Z,77.25
2023-04-02T15:21:49.660Z,76.00
2023-04-02T15:27:14.670Z,81.25
2023-04-02T15:32:33.814Z,75.75
2023-04-02T15:37:57.082Z,76.75
2023-04-02T15:43:16.443Z,78.25
2023-04-02T15:48:28.618Z,76.25
2023-04-02T15:54:12.068Z,84.25
2023-04-02T15:59:20.115Z,74.50
2023-04-02T16:04:28.635Z,74.00
2023-04-02T16:09:45.875Z,78.50
2023-04-02T16:14:57.794Z,78.75
2023-04-02T16:20:07.819Z,77.25
2023-04-02T16:25:24.876Z,74.75
2023-04-02T16:30:42.214Z,72.75
2023-04-02T16:35:55.323Z,77.00
2023-04-02T16:41:08.927Z,74.00
2023-04-02T16:46:14.780Z,74.00
2023-04-02T16:51:23.155Z,74.75
2023-04-02T16:56:41.725Z,74.25
2023-04-02T17:01:59.911Z,73.00
2023-04-02T17:07:13.954Z,71.25
2023-04-02T17:12:30.077Z,73.00
2023-04-02T17:17:34.705Z,76.00
2023-04-02T17:22:39.323Z,65.50
2023-04-02T17:27:47.185Z,72.25
2023-04-02T17:32:51.972Z,67.50
2023-04-02T17:38:02.616Z,69.00
2023-04-02T17:43:12.435Z,69.25
2023-04-02T17:48:28.856Z,71.75
2023-04-02T17:53:36.191Z,71.50
2023-04-02T17:58:40.719Z,68.50
2023-04-02T18:04:00.500Z,70.00
2023-04-02T18:09:16.253Z,74.75
2023-04-02T18:14:20.757Z,69.25
2023-04-02T18:19:34.999Z,69.75
2023-04-02T18:24:40.724Z,70.00
2023-04-02T18:30:03.708Z,68.50
2023-04-02T18:35:23.839Z,68.00
2023-04-02T18:40:31.829Z,65.50
2023-04-02T18:45:55.097Z,66.75
2023-04-02T18:51:01.502Z,72.00
2023-04-02T18:56:08.249Z,69.25
2023-04-02T19:01:15.423Z,66.00
2023-04-02T19:06:28.844Z,68.25
2023-04-02T19:11:33.949Z,68.25
2023-04-02T19:16:41.860Z,62.00
2023-04-02T19:22:06.034Z,65.50
2023-04-02T19:27:10.938Z,63.75
2023-04-02T19:32:25.616Z,62.50
2023-04-02T19:37:40.007Z,65.00
2023-04-02T19:42:46.587Z,68.25
2023-04-02T19:47:51.767Z,68.25
2023-04-02T19:52:56.764Z,65.50
2023-04-02T19:58:17.233Z,64.00
2023-04-02T20:03:23.933Z,62.00
2023-04-02T20:08:29.164Z,68.25
2023-04-02T20:13:34.111Z,65.75
2023-04-02T20:18:38.846Z,64.75
2023-04-02T20:23:43.558Z,63.00
2023-04-02T20:28:48.171Z,65.00
2023-04-02T20:33:56.205Z,65.00
2023-04-02T20:39:00.910Z,68.75
2023-04-02T20:44:05.517Z,59.50
2023-04-02T20:49:10.043Z,64.75
2023-04-02T20:54:14.597Z,60.00
2023-04-02T20:59:19.331Z,60.00
2023-04-02T21:04:24.112Z,61.75
2023-04-02T21:09:28.650Z,61.25
2023-04-02T21:14:37.463Z,61.75
2023-04-02T21:19:42.061Z,61.50
2023-04-02T21:24:46.900Z,64.25
2023-04-02T21:29:51.518Z,60.25
2023-04-02T21:34:56.608Z,60.50
2023-04-02T21:40:01.182Z,57.50
2023-04-02T21:45:05.832Z,62.75
2023-04-02T21:50:10.838Z,62.00
2023-04-02T21:55:15.411Z,59.75
2023-04-02T22:00:20.032Z,68.00
2023-04-02T22:05:24.705Z,105.00
2023-04-02T22:10:29.393Z,89.25
2023-04-02T22:15:35.184Z,101.50
2023-04-02T22:20:40.478Z,90.75
2023-04-02T22:25:45.003Z,108.75
2023-04-02T22:30:49.999Z,113.50
2023-04-02T22:35:54.948Z,101.00
2023-04-02T22:41:12.129Z,104.75
2023-04-02T22:46:17.766Z,104.00
2023-04-02T22:51:23.353Z,106.00
2023-04-02T22:56:30.882Z,94.25
2023-04-02T23:01:36.728Z,104.75
